sensor_id;sensor_type;location;lat;lon;timestamp;P1;durP1;ratioP1;P2;durP2;ratioP2
52866;SDS011;38739;53.324;6.862;2023-09-12T00:25:06;44.13;;;34.33;;
52866;SDS011;38739;53.324;6.862;2023-09-12T00:27:32;45.97;;;35.78;;
52866;SDS011;38739;53.324;6.862;2023-09-12T00:29:58;44.50;;;33.72;;
52866;SDS011;38739;53.324;6.862;2023-09-12T00:32:23;41.08;;;31.73;;
52866;SDS011;38739;53.324;6.862;2023-09-12T00:34:49;41.35;;;32.97;;
52866;SDS011;38739;53.324;6.862;2023-09-12T00:37:15;45.50;;;33.33;;
52866;SDS011;38739;53.324;6.862;2023-09-12T00:39:40;43.25;;;33.38;;
52866;SDS011;38739;53.324;6.862;2023-09-12T00:42:06;39.45;;;32.20;;
52866;SDS011;38739;53.324;6.862;2023-09-12T00:44:33;45.63;;;33.40;;
52866;SDS011;38739;53.324;6.862;2023-09-12T00:46:58;42.05;;;32.85;;
52866;SDS011;38739;53.324;6.862;2023-09-12T00:49:26;43.15;;;32.17;;
52866;SDS011;38739;53.324;6.862;2023-09-12T00:51:53;40.05;;;32.63;;
52866;SDS011;38739;53.324;6.862;2023-09-12T00:54:21;39.47;;;32.00;;
52866;SDS011;38739;53.324;6.862;2023-09-12T00:56:47;36.10;;;30.35;;
52866;SDS011;38739;53.324;6.862;2023-09-12T00:59:14;42.95;;;32.00;;
52866;SDS011;38739;53.324;6.862;2023-09-12T01:01:42;42.30;;;32.53;;
52866;SDS011;38739;53.324;6.862;2023-09-12T01:04:08;38.83;;;30.48;;
52866;SDS011;38739;53.324;6.862;2023-09-12T01:06:34;38.88;;;32.25;;
52866;SDS011;38739;53.324;6.862;2023-09-12T01:09:01;43.85;;;32.97;;
52866;SDS011;38739;53.324;6.862;2023-09-12T01:11:27;43.47;;;31.27;;
52866;SDS011;38739;53.324;6.862;2023-09-12T01:13:53;40.13;;;31.67;;
52866;SDS011;38739;53.324;6.862;2023-09-12T01:16:19;40.83;;;31.63;;
52866;SDS011;38739;53.324;6.862;2023-09-12T01:18:45;40.83;;;30.77;;
52866;SDS011;38739;53.324;6.862;2023-09-12T01:29:46;42.83;;;32.00;;
52866;SDS011;38739;53.324;6.862;2023-09-12T01:32:16;42.72;;;33.85;;
52866;SDS011;38739;53.324;6.862;2023-09-12T01:34:44;41.75;;;33.72;;
52866;SDS011;38739;53.324;6.862;2023-09-12T01:37:10;42.55;;;33.25;;
52866;SDS011;38739;53.324;6.862;2023-09-12T01:39:36;47.55;;;34.75;;
52866;SDS011;38739;53.324;6.862;2023-09-12T01:42:02;43.45;;;33.45;;
52866;SDS011;38739;53.324;6.862;2023-09-12T01:44:28;44.78;;;33.67;;
52866;SDS011;38739;53.324;6.862;2023-09-12T01:46:55;45.03;;;34.45;;
52866;SDS011;38739;53.324;6.862;2023-09-12T01:49:25;41.17;;;32.70;;
52866;SDS011;38739;53.324;6.862;2023-09-12T01:51:52;43.65;;;34.83;;
52866;SDS011;38739;53.324;6.862;2023-09-12T01:54:19;46.90;;;34.70;;
52866;SDS011;38739;53.324;6.862;2023-09-12T01:56:46;48.47;;;35.95;;
52866;SDS011;38739;53.324;6.862;2023-09-12T01:59:13;42.55;;;32.15;;
52866;SDS011;38739;53.324;6.862;2023-09-12T02:01:39;46.28;;;35.72;;
52866;SDS011;38739;53.324;6.862;2023-09-12T02:04:04;44.70;;;33.97;;
52866;SDS011;38739;53.324;6.862;2023-09-12T02:06:34;41.28;;;32.40;;
52866;SDS011;38739;53.324;6.862;2023-09-12T02:09:00;49.33;;;35.45;;
52866;SDS011;38739;53.324;6.862;2023-09-12T02:11:26;48.30;;;36.47;;
52866;SDS011;38739;53.324;6.862;2023-09-12T02:13:52;46.72;;;35.17;;
52866;SDS011;38739;53.324;6.862;2023-09-12T02:16:18;44.47;;;34.80;;
52866;SDS011;38739;53.324;6.862;2023-09-12T02:18:43;47.15;;;34.45;;
52866;SDS011;38739;53.324;6.862;2023-09-12T02:21:09;49.00;;;36.28;;
52866;SDS011;38739;53.324;6.862;2023-09-12T02:23:35;48.35;;;37.13;;
52866;SDS011;38739;53.324;6.862;2023-09-12T02:26:00;49.50;;;35.90;;
52866;SDS011;38739;53.324;6.862;2023-09-12T02:28:26;48.47;;;35.17;;
52866;SDS011;38739;53.324;6.862;2023-09-12T02:30:52;47.47;;;36.42;;
52866;SDS011;38739;53.324;6.862;2023-09-12T02:33:17;47.90;;;34.80;;
52866;SDS011;38739;53.324;6.862;2023-09-12T02:35:43;48.17;;;35.40;;
52866;SDS011;38739;53.324;6.862;2023-09-12T02:38:09;46.33;;;34.63;;
52866;SDS011;38739;53.324;6.862;2023-09-12T02:40:35;50.65;;;35.97;;
52866;SDS011;38739;53.324;6.862;2023-09-12T02:43:01;48.83;;;36.20;;
52866;SDS011;38739;53.324;6.862;2023-09-12T02:45:26;48.95;;;36.95;;
52866;SDS011;38739;53.324;6.862;2023-09-12T02:47:52;49.10;;;36.20;;
52866;SDS011;38739;53.324;6.862;2023-09-12T02:50:18;46.30;;;34.35;;
52866;SDS011;38739;53.324;6.862;2023-09-12T02:52:43;48.50;;;34.40;;
52866;SDS011;38739;53.324;6.862;2023-09-12T02:55:09;47.90;;;36.35;;
52866;SDS011;38739;53.324;6.862;2023-09-12T02:57:35;48.85;;;35.85;;
52866;SDS011;38739;53.324;6.862;2023-09-12T03:00:01;54.63;;;37.50;;
52866;SDS011;38739;53.324;6.862;2023-09-12T03:02:27;55.88;;;37.60;;
52866;SDS011;38739;53.324;6.862;2023-09-12T03:04:54;55.08;;;38.03;;
52866;SDS011;38739;53.324;6.862;2023-09-12T03:07:21;52.67;;;38.58;;
52866;SDS011;38739;53.324;6.862;2023-09-12T03:09:49;48.00;;;36.88;;
52866;SDS011;38739;53.324;6.862;2023-09-12T03:12:15;54.65;;;37.38;;
52866;SDS011;38739;53.324;6.862;2023-09-12T03:14:41;55.03;;;39.42;;
52866;SDS011;38739;53.324;6.862;2023-09-12T03:17:07;52.03;;;38.53;;
52866;SDS011;38739;53.324;6.862;2023-09-12T03:19:32;56.38;;;39.63;;
52866;SDS011;38739;53.324;6.862;2023-09-12T03:21:58;52.42;;;38.50;;
52866;SDS011;38739;53.324;6.862;2023-09-12T03:24:24;54.08;;;38.38;;
52866;SDS011;38739;53.324;6.862;2023-09-12T03:26:50;56.40;;;38.28;;
52866;SDS011;38739;53.324;6.862;2023-09-12T03:29:16;51.83;;;37.70;;
52866;SDS011;38739;53.324;6.862;2023-09-12T03:31:42;51.13;;;38.03;;
52866;SDS011;38739;53.324;6.862;2023-09-12T03:34:08;53.55;;;39.42;;
52866;SDS011;38739;53.324;6.862;2023-09-12T03:36:33;52.08;;;35.67;;
52866;SDS011;38739;53.324;6.862;2023-09-12T03:38:59;50.92;;;37.58;;
52866;SDS011;38739;53.324;6.862;2023-09-12T03:41:25;52.80;;;38.83;;
52866;SDS011;38739;53.324;6.862;2023-09-12T03:43:52;57.25;;;40.67;;
52866;SDS011;38739;53.324;6.862;2023-09-12T03:46:18;58.10;;;39.58;;
52866;SDS011;38739;53.324;6.862;2023-09-12T03:48:44;56.25;;;39.50;;
52866;SDS011;38739;53.324;6.862;2023-09-12T03:51:11;55.55;;;39.22;;
52866;SDS011;38739;53.324;6.862;2023-09-12T03:53:37;61.33;;;41.08;;
52866;SDS011;38739;53.324;6.862;2023-09-12T03:56:03;55.17;;;38.30;;
52866;SDS011;38739;53.324;6.862;2023-09-12T03:58:28;56.22;;;40.50;;
52866;SDS011;38739;53.324;6.862;2023-09-12T04:00:54;62.45;;;41.67;;
52866;SDS011;38739;53.324;6.862;2023-09-12T04:03:20;53.90;;;38.17;;
52866;SDS011;38739;53.324;6.862;2023-09-12T04:05:46;55.42;;;39.35;;
52866;SDS011;38739;53.324;6.862;2023-09-12T04:08:12;54.05;;;38.20;;
52866;SDS011;38739;53.324;6.862;2023-09-12T04:10:38;57.83;;;40.17;;
52866;SDS011;38739;53.324;6.862;2023-09-12T04:13:04;58.58;;;41.03;;
52866;SDS011;38739;53.324;6.862;2023-09-12T04:15:30;57.00;;;40.35;;
52866;SDS011;38739;53.324;6.862;2023-09-12T04:17:55;52.70;;;37.72;;
52866;SDS011;38739;53.324;6.862;2023-09-12T04:20:21;49.33;;;35.95;;
52866;SDS011;38739;53.324;6.862;2023-09-12T04:22:47;58.45;;;36.95;;
52866;SDS011;38739;53.324;6.862;2023-09-12T04:25:12;47.45;;;34.83;;
52866;SDS011;38739;53.324;6.862;2023-09-12T04:27:38;50.13;;;35.47;;
52866;SDS011;38739;53.324;6.862;2023-09-12T04:30:04;52.75;;;36.20;;
52866;SDS011;38739;53.324;6.862;2023-09-12T04:32:30;54.03;;;36.95;;
52866;SDS011;38739;53.324;6.862;2023-09-12T04:34:56;51.58;;;35.60;;
52866;SDS011;38739;53.324;6.862;2023-09-12T04:37:21;54.60;;;36.85;;
52866;SDS011;38739;53.324;6.862;2023-09-12T04:39:48;50.95;;;36.28;;
52866;SDS011;38739;53.324;6.862;2023-09-12T04:42:13;55.83;;;38.67;;
52866;SDS011;38739;53.324;6.862;2023-09-12T04:44:40;54.83;;;38.17;;
52866;SDS011;38739;53.324;6.862;2023-09-12T04:47:06;49.65;;;35.60;;
52866;SDS011;38739;53.324;6.862;2023-09-12T04:49:33;49.45;;;34.58;;
52866;SDS011;38739;53.324;6.862;2023-09-12T04:51:59;50.88;;;35.40;;
52866;SDS011;38739;53.324;6.862;2023-09-12T04:54:24;55.80;;;36.50;;
52866;SDS011;38739;53.324;6.862;2023-09-12T04:56:50;52.53;;;36.55;;
52866;SDS011;38739;53.324;6.862;2023-09-12T04:59:16;50.85;;;34.45;;
52866;SDS011;38739;53.324;6.862;2023-09-12T05:01:41;46.70;;;34.53;;
52866;SDS011;38739;53.324;6.862;2023-09-12T05:04:07;51.75;;;35.25;;
52866;SDS011;38739;53.324;6.862;2023-09-12T05:06:34;49.63;;;34.72;;
52866;SDS011;38739;53.324;6.862;2023-09-12T05:09:00;51.85;;;35.40;;
52866;SDS011;38739;53.324;6.862;2023-09-12T05:11:26;45.97;;;33.45;;
52866;SDS011;38739;53.324;6.862;2023-09-12T05:13:52;46.50;;;33.72;;
52866;SDS011;38739;53.324;6.862;2023-09-12T05:16:18;45.92;;;32.88;;
52866;SDS011;38739;53.324;6.862;2023-09-12T05:18:43;51.80;;;35.00;;
52866;SDS011;38739;53.324;6.862;2023-09-12T05:21:09;53.63;;;36.47;;
52866;SDS011;38739;53.324;6.862;2023-09-12T05:23:35;61.72;;;38.55;;
52866;SDS011;38739;53.324;6.862;2023-09-12T05:26:01;55.33;;;36.67;;
52866;SDS011;38739;53.324;6.862;2023-09-12T05:28:27;55.20;;;37.20;;
52866;SDS011;38739;53.324;6.862;2023-09-12T05:30:53;54.25;;;37.80;;
52866;SDS011;38739;53.324;6.862;2023-09-12T05:33:19;51.83;;;35.60;;
52866;SDS011;38739;53.324;6.862;2023-09-12T05:35:45;53.67;;;37.03;;
52866;SDS011;38739;53.324;6.862;2023-09-12T05:38:11;50.25;;;35.05;;
52866;SDS011;38739;53.324;6.862;2023-09-12T05:40:36;52.50;;;37.47;;
52866;SDS011;38739;53.324;6.862;2023-09-12T05:43:02;52.70;;;36.88;;
52866;SDS011;38739;53.324;6.862;2023-09-12T05:45:28;53.63;;;37.85;;
52866;SDS011;38739;53.324;6.862;2023-09-12T05:47:56;56.78;;;38.25;;
52866;SDS011;38739;53.324;6.862;2023-09-12T05:50:21;54.78;;;37.10;;
52866;SDS011;38739;53.324;6.862;2023-09-12T05:52:48;72.90;;;37.25;;
52866;SDS011;38739;53.324;6.862;2023-09-12T05:55:14;163.10;;;38.10;;
52866;SDS011;38739;53.324;6.862;2023-09-12T05:57:40;77.85;;;35.20;;
52866;SDS011;38739;53.324;6.862;2023-09-12T06:00:05;144.68;;;36.42;;
52866;SDS011;38739;53.324;6.862;2023-09-12T06:02:35;87.88;;;35.28;;
52866;SDS011;38739;53.324;6.862;2023-09-12T06:05:01;81.90;;;37.13;;
52866;SDS011;38739;53.324;6.862;2023-09-12T06:07:26;72.97;;;37.80;;
52866;SDS011;38739;53.324;6.862;2023-09-12T06:09:52;89.15;;;38.30;;
52866;SDS011;38739;53.324;6.862;2023-09-12T06:12:18;90.45;;;36.88;;
52866;SDS011;38739;53.324;6.862;2023-09-12T06:14:44;76.75;;;35.88;;
52866;SDS011;38739;53.324;6.862;2023-09-12T06:17:09;69.60;;;33.75;;
52866;SDS011;38739;53.324;6.862;2023-09-12T06:19:35;54.88;;;32.70;;
52866;SDS011;38739;53.324;6.862;2023-09-12T06:22:01;48.22;;;32.47;;
52866;SDS011;38739;53.324;6.862;2023-09-12T06:24:27;35.88;;;29.70;;
52866;SDS011;38739;53.324;6.862;2023-09-12T06:26:53;60.40;;;32.58;;
52866;SDS011;38739;53.324;6.862;2023-09-12T06:29:18;38.55;;;30.48;;
52866;SDS011;38739;53.324;6.862;2023-09-12T06:31:44;39.03;;;31.35;;
52866;SDS011;38739;53.324;6.862;2023-09-12T06:34:10;37.40;;;31.42;;
52866;SDS011;38739;53.324;6.862;2023-09-12T06:36:36;41.47;;;31.17;;
52866;SDS011;38739;53.324;6.862;2023-09-12T06:39:03;37.03;;;30.70;;
52866;SDS011;38739;53.324;6.862;2023-09-12T06:41:30;39.65;;;31.13;;
52866;SDS011;38739;53.324;6.862;2023-09-12T06:43:56;41.33;;;32.13;;
52866;SDS011;38739;53.324;6.862;2023-09-12T06:46:23;37.95;;;30.95;;
52866;SDS011;38739;53.324;6.862;2023-09-12T06:48:50;47.15;;;34.58;;
52866;SDS011;38739;53.324;6.862;2023-09-12T06:51:16;47.17;;;35.75;;
52866;SDS011;38739;53.324;6.862;2023-09-12T06:53:42;44.15;;;32.70;;
52866;SDS011;38739;53.324;6.862;2023-09-12T06:56:08;50.13;;;35.10;;
52866;SDS011;38739;53.324;6.862;2023-09-12T06:58:34;50.67;;;35.83;;
52866;SDS011;38739;53.324;6.862;2023-09-12T07:01:03;65.68;;;37.08;;
52866;SDS011;38739;53.324;6.862;2023-09-12T07:03:32;56.30;;;36.63;;
52866;SDS011;38739;53.324;6.862;2023-09-12T07:05:58;57.20;;;37.60;;
52866;SDS011;38739;53.324;6.862;2023-09-12T07:08:24;49.40;;;35.63;;
52866;SDS011;38739;53.324;6.862;2023-09-12T07:10:50;62.53;;;37.90;;
52866;SDS011;38739;53.324;6.862;2023-09-12T07:13:16;51.38;;;36.38;;
52866;SDS011;38739;53.324;6.862;2023-09-12T07:15:41;52.95;;;36.83;;
52866;SDS011;38739;53.324;6.862;2023-09-12T07:18:07;51.45;;;37.22;;
52866;SDS011;38739;53.324;6.862;2023-09-12T07:20:33;66.70;;;33.97;;
52866;SDS011;38739;53.324;6.862;2023-09-12T07:22:59;58.20;;;32.63;;
52866;SDS011;38739;53.324;6.862;2023-09-12T07:25:25;41.47;;;31.17;;
52866;SDS011;38739;53.324;6.862;2023-09-12T07:27:51;44.95;;;30.70;;
52866;SDS011;38739;53.324;6.862;2023-09-12T07:30:17;46.17;;;30.85;;
52866;SDS011;38739;53.324;6.862;2023-09-12T07:32:43;46.45;;;32.80;;
52866;SDS011;38739;53.324;6.862;2023-09-12T07:35:09;56.15;;;33.45;;
52866;SDS011;38739;53.324;6.862;2023-09-12T07:37:35;89.53;;;36.67;;
52866;SDS011;38739;53.324;6.862;2023-09-12T07:40:01;62.88;;;35.67;;
52866;SDS011;38739;53.324;6.862;2023-09-12T07:42:31;52.22;;;34.17;;
52866;SDS011;38739;53.324;6.862;2023-09-12T07:44:57;59.83;;;36.83;;
52866;SDS011;38739;53.324;6.862;2023-09-12T07:47:23;61.97;;;38.65;;
52866;SDS011;38739;53.324;6.862;2023-09-12T07:49:55;63.95;;;38.05;;
52866;SDS011;38739;53.324;6.862;2023-09-12T07:52:21;55.72;;;35.33;;
52866;SDS011;38739;53.324;6.862;2023-09-12T07:54:48;59.58;;;37.72;;
52866;SDS011;38739;53.324;6.862;2023-09-12T07:57:14;62.67;;;38.75;;
52866;SDS011;38739;53.324;6.862;2023-09-12T07:59:40;62.63;;;39.22;;
52866;SDS011;38739;53.324;6.862;2023-09-12T08:02:05;59.33;;;37.83;;
52866;SDS011;38739;53.324;6.862;2023-09-12T08:04:31;58.53;;;35.97;;
52866;SDS011;38739;53.324;6.862;2023-09-12T08:06:57;56.92;;;36.72;;
52866;SDS011;38739;53.324;6.862;2023-09-12T08:09:22;61.17;;;37.80;;
52866;SDS011;38739;53.324;6.862;2023-09-12T08:11:48;63.20;;;38.92;;
52866;SDS011;38739;53.324;6.862;2023-09-12T08:14:14;56.65;;;37.75;;
52866;SDS011;38739;53.324;6.862;2023-09-12T08:16:40;62.83;;;38.97;;
52866;SDS011;38739;53.324;6.862;2023-09-12T08:19:05;58.53;;;37.47;;
52866;SDS011;38739;53.324;6.862;2023-09-12T08:21:31;57.45;;;38.35;;
52866;SDS011;38739;53.324;6.862;2023-09-12T08:23:56;60.45;;;39.00;;
52866;SDS011;38739;53.324;6.862;2023-09-12T08:26:22;62.35;;;38.63;;
52866;SDS011;38739;53.324;6.862;2023-09-12T08:28:48;56.38;;;37.03;;
52866;SDS011;38739;53.324;6.862;2023-09-12T08:31:13;61.53;;;36.63;;
52866;SDS011;38739;53.324;6.862;2023-09-12T08:33:39;61.08;;;38.28;;
52866;SDS011;38739;53.324;6.862;2023-09-12T08:36:05;58.35;;;37.10;;
52866;SDS011;38739;53.324;6.862;2023-09-12T08:38:31;55.85;;;36.42;;
52866;SDS011;38739;53.324;6.862;2023-09-12T08:40:56;57.88;;;37.08;;
52866;SDS011;38739;53.324;6.862;2023-09-12T08:43:22;58.00;;;37.30;;
52866;SDS011;38739;53.324;6.862;2023-09-12T08:45:48;58.35;;;36.80;;
52866;SDS011;38739;53.324;6.862;2023-09-12T08:48:15;55.45;;;37.28;;
52866;SDS011;38739;53.324;6.862;2023-09-12T08:50:41;56.45;;;35.15;;
52866;SDS011;38739;53.324;6.862;2023-09-12T08:53:07;56.83;;;36.45;;
52866;SDS011;38739;53.324;6.862;2023-09-12T08:55:33;52.28;;;36.05;;
52866;SDS011;38739;53.324;6.862;2023-09-12T08:58:02;50.90;;;35.05;;
52866;SDS011;38739;53.324;6.862;2023-09-12T09:00:29;50.28;;;34.97;;
52866;SDS011;38739;53.324;6.862;2023-09-12T09:02:55;50.33;;;34.38;;
52866;SDS011;38739;53.324;6.862;2023-09-12T09:05:22;53.08;;;35.53;;
52866;SDS011;38739;53.324;6.862;2023-09-12T09:07:48;51.05;;;34.42;;
52866;SDS011;38739;53.324;6.862;2023-09-12T09:10:15;50.58;;;34.63;;
52866;SDS011;38739;53.324;6.862;2023-09-12T09:12:43;52.90;;;36.03;;
52866;SDS011;38739;53.324;6.862;2023-09-12T09:18:08;53.15;;;34.22;;
52866;SDS011;38739;53.324;6.862;2023-09-12T09:20:37;51.80;;;34.47;;
52866;SDS011;38739;53.324;6.862;2023-09-12T09:23:04;49.88;;;34.20;;
52866;SDS011;38739;53.324;6.862;2023-09-12T09:25:31;47.10;;;33.15;;
52866;SDS011;38739;53.324;6.862;2023-09-12T09:27:57;48.60;;;33.13;;
52866;SDS011;38739;53.324;6.862;2023-09-12T09:30:40;49.55;;;33.78;;
52866;SDS011;38739;53.324;6.862;2023-09-12T09:33:10;49.10;;;35.15;;
52866;SDS011;38739;53.324;6.862;2023-09-12T09:35:37;49.03;;;33.17;;
52866;SDS011;38739;53.324;6.862;2023-09-12T09:38:05;45.65;;;32.58;;
52866;SDS011;38739;53.324;6.862;2023-09-12T09:40:32;48.35;;;33.83;;
52866;SDS011;38739;53.324;6.862;2023-09-12T09:42:59;50.42;;;33.65;;
52866;SDS011;38739;53.324;6.862;2023-09-12T09:45:27;53.47;;;35.28;;
52866;SDS011;38739;53.324;6.862;2023-09-12T09:47:57;50.33;;;33.05;;
52866;SDS011;38739;53.324;6.862;2023-09-12T09:50:35;45.25;;;30.95;;
52866;SDS011;38739;53.324;6.862;2023-09-12T09:53:04;42.75;;;30.65;;
52866;SDS011;38739;53.324;6.862;2023-09-12T09:55:33;52.83;;;35.92;;
52866;SDS011;38739;53.324;6.862;2023-09-12T09:57:59;49.55;;;35.75;;
52866;SDS011;38739;53.324;6.862;2023-09-12T10:00:25;47.60;;;34.20;;
52866;SDS011;38739;53.324;6.862;2023-09-12T10:02:53;49.28;;;35.70;;
52866;SDS011;38739;53.324;6.862;2023-09-12T10:05:20;47.40;;;34.17;;
52866;SDS011;38739;53.324;6.862;2023-09-12T10:07:48;49.20;;;33.35;;
52866;SDS011;38739;53.324;6.862;2023-09-12T10:10:18;40.22;;;29.98;;
52866;SDS011;38739;53.324;6.862;2023-09-12T10:12:51;45.88;;;31.63;;
52866;SDS011;38739;53.324;6.862;2023-09-12T10:15:21;42.25;;;29.73;;
52866;SDS011;38739;53.324;6.862;2023-09-12T10:17:55;42.65;;;29.48;;
52866;SDS011;38739;53.324;6.862;2023-09-12T10:20:24;37.05;;;28.35;;
52866;SDS011;38739;53.324;6.862;2023-09-12T10:23:22;38.92;;;29.42;;
52866;SDS011;38739;53.324;6.862;2023-09-12T10:25:55;38.47;;;29.08;;
52866;SDS011;38739;53.324;6.862;2023-09-12T10:28:23;38.95;;;28.88;;
52866;SDS011;38739;53.324;6.862;2023-09-12T10:30:51;34.78;;;26.35;;
52866;SDS011;38739;53.324;6.862;2023-09-12T10:33:18;33.42;;;25.65;;
52866;SDS011;38739;53.324;6.862;2023-09-12T10:35:44;34.83;;;26.55;;
52866;SDS011;38739;53.324;6.862;2023-09-12T10:38:10;32.75;;;25.15;;
52866;SDS011;38739;53.324;6.862;2023-09-12T10:40:39;35.50;;;26.65;;
52866;SDS011;38739;53.324;6.862;2023-09-12T10:43:07;32.70;;;25.77;;
52866;SDS011;38739;53.324;6.862;2023-09-12T10:45:36;39.55;;;27.58;;
52866;SDS011;38739;53.324;6.862;2023-09-12T10:48:02;35.75;;;26.63;;
52866;SDS011;38739;53.324;6.862;2023-09-12T10:50:29;38.85;;;27.60;;
52866;SDS011;38739;53.324;6.862;2023-09-12T10:52:56;31.88;;;25.30;;
52866;SDS011;38739;53.324;6.862;2023-09-12T10:55:32;32.80;;;25.35;;
52866;SDS011;38739;53.324;6.862;2023-09-12T10:58:05;32.55;;;23.73;;
52866;SDS011;38739;53.324;6.862;2023-09-12T11:00:33;30.85;;;23.52;;
52866;SDS011;38739;53.324;6.862;2023-09-12T11:05:53;32.50;;;24.60;;
52866;SDS011;38739;53.324;6.862;2023-09-12T11:08:20;31.30;;;23.98;;
52866;SDS011;38739;53.324;6.862;2023-09-12T11:11:16;31.83;;;22.75;;
52866;SDS011;38739;53.324;6.862;2023-09-12T11:13:44;29.17;;;21.85;;
52866;SDS011;38739;53.324;6.862;2023-09-12T11:16:14;31.25;;;21.90;;
52866;SDS011;38739;53.324;6.862;2023-09-12T11:21:44;28.33;;;21.80;;
52866;SDS011;38739;53.324;6.862;2023-09-12T11:24:10;28.60;;;20.33;;
52866;SDS011;38739;53.324;6.862;2023-09-12T11:26:51;29.83;;;21.42;;
52866;SDS011;38739;53.324;6.862;2023-09-12T11:32:01;31.77;;;22.20;;
52866;SDS011;38739;53.324;6.862;2023-09-12T11:34:36;28.90;;;21.55;;
52866;SDS011;38739;53.324;6.862;2023-09-12T11:37:03;28.75;;;21.83;;
52866;SDS011;38739;53.324;6.862;2023-09-12T11:39:33;26.98;;;20.23;;
52866;SDS011;38739;53.324;6.862;2023-09-12T11:42:01;27.47;;;22.00;;
52866;SDS011;38739;53.324;6.862;2023-09-12T11:44:28;25.42;;;20.38;;
52866;SDS011;38739;53.324;6.862;2023-09-12T11:46:56;28.20;;;21.40;;
52866;SDS011;38739;53.324;6.862;2023-09-12T11:49:28;27.55;;;21.10;;
52866;SDS011;38739;53.324;6.862;2023-09-12T11:52:07;25.52;;;19.92;;
52866;SDS011;38739;53.324;6.862;2023-09-12T11:54:35;26.95;;;20.00;;
52866;SDS011;38739;53.324;6.862;2023-09-12T11:57:01;25.90;;;19.58;;
52866;SDS011;38739;53.324;6.862;2023-09-12T11:59:28;27.90;;;20.00;;
52866;SDS011;38739;53.324;6.862;2023-09-12T12:01:54;23.88;;;18.73;;
52866;SDS011;38739;53.324;6.862;2023-09-12T12:04:23;22.60;;;17.65;;
52866;SDS011;38739;53.324;6.862;2023-09-12T12:06:51;27.67;;;18.65;;
52866;SDS011;38739;53.324;6.862;2023-09-12T12:09:17;23.23;;;17.60;;
52866;SDS011;38739;53.324;6.862;2023-09-12T12:11:45;28.70;;;20.20;;
52866;SDS011;38739;53.324;6.862;2023-09-12T12:14:12;27.20;;;19.38;;
52866;SDS011;38739;53.324;6.862;2023-09-12T12:16:42;26.13;;;18.55;;
52866;SDS011;38739;53.324;6.862;2023-09-12T12:19:12;21.10;;;16.42;;
52866;SDS011;38739;53.324;6.862;2023-09-12T12:21:39;21.65;;;16.52;;
52866;SDS011;38739;53.324;6.862;2023-09-12T12:24:13;22.33;;;17.15;;
52866;SDS011;38739;53.324;6.862;2023-09-12T12:26:43;22.80;;;18.17;;
52866;SDS011;38739;53.324;6.862;2023-09-12T12:29:10;21.85;;;18.00;;
52866;SDS011;38739;53.324;6.862;2023-09-12T12:31:37;21.98;;;15.75;;
52866;SDS011;38739;53.324;6.862;2023-09-12T12:34:04;24.45;;;17.98;;
52866;SDS011;38739;53.324;6.862;2023-09-12T12:36:30;23.55;;;17.90;;
52866;SDS011;38739;53.324;6.862;2023-09-12T12:38:56;22.15;;;17.33;;
52866;SDS011;38739;53.324;6.862;2023-09-12T12:41:26;19.05;;;14.82;;
52866;SDS011;38739;53.324;6.862;2023-09-12T12:46:24;22.75;;;17.67;;
52866;SDS011;38739;53.324;6.862;2023-09-12T12:48:50;21.55;;;16.58;;
52866;SDS011;38739;53.324;6.862;2023-09-12T12:53:54;22.30;;;17.50;;
52866;SDS011;38739;53.324;6.862;2023-09-12T12:56:28;7.72;;;6.40;;
52866;SDS011;38739;53.324;6.862;2023-09-12T12:58:55;4.90;;;3.00;;
52866;SDS011;38739;53.324;6.862;2023-09-12T13:01:24;3.53;;;1.80;;
52866;SDS011;38739;53.324;6.862;2023-09-12T13:03:50;4.22;;;2.10;;
52866;SDS011;38739;53.324;6.862;2023-09-12T13:06:16;5.65;;;2.00;;
52866;SDS011;38739;53.324;6.862;2023-09-12T13:08:43;4.35;;;2.30;;
52866;SDS011;38739;53.324;6.862;2023-09-12T13:11:11;9.80;;;2.90;;
52866;SDS011;38739;53.324;6.862;2023-09-12T13:13:38;30.90;;;6.30;;
52866;SDS011;38739;53.324;6.862;2023-09-12T13:16:05;22.95;;;4.63;;
52866;SDS011;38739;53.324;6.862;2023-09-12T13:18:34;41.60;;;6.82;;
52866;SDS011;38739;53.324;6.862;2023-09-12T13:21:00;21.52;;;5.20;;
52866;SDS011;38739;53.324;6.862;2023-09-12T13:23:26;37.85;;;5.82;;
52866;SDS011;38739;53.324;6.862;2023-09-12T13:25:53;56.10;;;6.05;;
52866;SDS011;38739;53.324;6.862;2023-09-12T13:28:19;16.92;;;5.00;;
52866;SDS011;38739;53.324;6.862;2023-09-12T13:30:45;12.00;;;4.72;;
52866;SDS011;38739;53.324;6.862;2023-09-12T13:33:11;13.32;;;4.97;;
52866;SDS011;38739;53.324;6.862;2023-09-12T13:35:40;15.82;;;4.95;;
52866;SDS011;38739;53.324;6.862;2023-09-12T13:38:06;9.02;;;4.30;;
52866;SDS011;38739;53.324;6.862;2023-09-12T13:40:40;26.30;;;6.47;;
52866;SDS011;38739;53.324;6.862;2023-09-12T13:43:07;15.43;;;5.60;;
52866;SDS011;38739;53.324;6.862;2023-09-12T13:45:33;14.98;;;5.18;;
52866;SDS011;38739;53.324;6.862;2023-09-12T13:47:59;11.68;;;4.90;;
52866;SDS011;38739;53.324;6.862;2023-09-12T13:50:28;40.05;;;7.03;;
52866;SDS011;38739;53.324;6.862;2023-09-12T13:52:55;19.80;;;6.35;;
52866;SDS011;38739;53.324;6.862;2023-09-12T13:55:22;16.23;;;6.32;;
52866;SDS011;38739;53.324;6.862;2023-09-12T13:57:48;22.83;;;6.40;;
52866;SDS011;38739;53.324;6.862;2023-09-12T14:00:14;12.43;;;5.82;;
52866;SDS011;38739;53.324;6.862;2023-09-12T14:02:40;9.73;;;5.72;;
52866;SDS011;38739;53.324;6.862;2023-09-12T14:05:05;8.10;;;5.18;;
52866;SDS011;38739;53.324;6.862;2023-09-12T14:07:31;8.75;;;4.85;;
52866;SDS011;38739;53.324;6.862;2023-09-12T14:09:57;8.23;;;5.28;;
52866;SDS011;38739;53.324;6.862;2023-09-12T14:12:23;11.35;;;5.00;;
52866;SDS011;38739;53.324;6.862;2023-09-12T14:14:50;10.88;;;5.45;;
52866;SDS011;38739;53.324;6.862;2023-09-12T14:17:16;7.45;;;4.57;;
52866;SDS011;38739;53.324;6.862;2023-09-12T14:19:43;6.40;;;4.00;;
52866;SDS011;38739;53.324;6.862;2023-09-12T14:22:08;6.22;;;3.80;;
52866;SDS011;38739;53.324;6.862;2023-09-12T14:24:34;5.45;;;3.92;;
52866;SDS011;38739;53.324;6.862;2023-09-12T14:27:00;6.53;;;3.60;;
52866;SDS011;38739;53.324;6.862;2023-09-12T14:29:25;7.03;;;3.95;;
52866;SDS011;38739;53.324;6.862;2023-09-12T14:31:54;6.25;;;3.72;;
52866;SDS011;38739;53.324;6.862;2023-09-12T14:34:26;6.30;;;3.60;;
52866;SDS011;38739;53.324;6.862;2023-09-12T14:36:56;6.15;;;3.67;;
52866;SDS011;38739;53.324;6.862;2023-09-12T14:39:22;4.45;;;3.38;;
52866;SDS011;38739;53.324;6.862;2023-09-12T14:41:48;5.10;;;3.80;;
52866;SDS011;38739;53.324;6.862;2023-09-12T14:44:20;5.70;;;4.10;;
52866;SDS011;38739;53.324;6.862;2023-09-12T14:46:46;8.98;;;5.47;;
52866;SDS011;38739;53.324;6.862;2023-09-12T14:49:12;6.45;;;5.25;;
52866;SDS011;38739;53.324;6.862;2023-09-12T14:51:38;8.95;;;5.15;;
52866;SDS011;38739;53.324;6.862;2023-09-12T14:54:04;7.97;;;5.35;;
52866;SDS011;38739;53.324;6.862;2023-09-12T14:56:30;8.52;;;5.63;;
52866;SDS011;38739;53.324;6.862;2023-09-12T14:58:57;6.72;;;5.53;;
52866;SDS011;38739;53.324;6.862;2023-09-12T15:01:23;11.15;;;6.30;;
52866;SDS011;38739;53.324;6.862;2023-09-12T15:03:50;6.53;;;5.10;;
52866;SDS011;38739;53.324;6.862;2023-09-12T15:06:16;7.88;;;5.38;;
52866;SDS011;38739;53.324;6.862;2023-09-12T15:08:42;8.60;;;5.50;;
52866;SDS011;38739;53.324;6.862;2023-09-12T15:11:07;6.97;;;5.90;;
52866;SDS011;38739;53.324;6.862;2023-09-12T15:13:33;7.03;;;5.38;;